MMMXMMSP

Guest
Details From MMMX - Licenciado Benito Juarez Intl
To MMSP - PONCIANO ARRIAGA INTL
Flight Number -
Tags generated
Created
Modified
Stats Distance 202 nm / 374 km
Max Altitude 22,900 ft / 6,980 m
Waypoints 4
Social Downloads 6
Likes 0
Share VATSIM

Download

Looking for another format? Having issues loading an existing format? Contact us
Advertisement - Login to hide

Notes

Basic altitude profile: - Ascent Rate: 2500ft/min - Ascent Speed: 250kts - Cruise Altitude: 35000ft - Cruise Speed: 420kts - Descent Rate: 1500ft/min - Descent Speed: 250kts Options: - Use NATs: yes - Use PACOTS: yes - Use low airways: yes - Use high airways: yes

Route

MMMX QET V43 SLP MMSP

ID Type Via Altitude Latitude Longitude Leg Dist Tot Dist Heading (true) Name
O MMMX APT - 0 ft / 0 m 19.43631˚ -99.07210˚ - 0 nm - Licenciado Benito Juarez Intl
QET VOR - 22,900 ft / 6,980 m 20.61747˚ -100.19364˚ 95 nm 95 nm 318° / 318° QUERETARO VOR-DME
SLP VOR V43 (AWY-LO) 12,000 ft / 3,658 m 22.25639˚ -100.93042˚ 106 nm 201 nm 337° / 337° POTOSI VOR-DME
O MMSP APT - 0 ft / 0 m 22.25869˚ -100.93258˚ 0 nm 201 nm 319° / 319° PONCIANO ARRIAGA INTL

Altitude Profile

Advertisement - Login to hide

Weather


0- 5 10 15 20 25 30 35+ Temperature / ° C

Clouds and Precipitation
Forecast for 2017-12-13 12:00 UTC. Updated 2 hours ago

Ground ~20,000 ft ~40,000 ft Winds

MMMX

Details ICAO MMMX (MEX)
Name Licenciado Benito Juarez Intl
Region Mexico
Timezone America/Mexico_City (UTC-6.0)
Stats Elevation 7,316 ft / 2,230 m (AMSL)
Location 19.436308° -99.072104°
Runways 2
Magnetic Variation 4.649° E

METAR

MMMX 131151Z 04005KT 7SM SKC 02/M01 A3035 NOSIG RMK SLP171 57004 968 HZY CI

Decode

TAF

Not found

Departure Runways

ID Width Length Bearing (true) Bearing (mag) Surface Threshold Offset Overrun Length
05L 148 ft / 45 m 12,951 ft / 3,948 m 59.25° 54.60° Asphalt 1,033 ft / 315 m 0 ft / 0 m
05R 148 ft / 45 m 12,800 ft / 3,902 m 59.26° 54.61° Asphalt 1,493 ft / 455 m 0 ft / 0 m
23L 148 ft / 45 m 12,800 ft / 3,902 m 239.28° 234.63° Asphalt 0 ft / 0 m 200 ft / 61 m
23R 148 ft / 45 m 12,951 ft / 3,948 m 239.27° 234.62° Asphalt 1,640 ft / 500 m 0 ft / 0 m

MMSP

Details ICAO MMSP (SLP)
Name PONCIANO ARRIAGA INTL
Region Mexico
Timezone America/Mexico_City (UTC-6.0)
Stats Elevation 6,035 ft / 1,839 m (AMSL)
Location 22.258688° -100.932580°
Runways 2
Magnetic Variation 5.370° E

METAR

MMSP 131247Z 00000KT 10SM SCT090 00/M08 A3032 RMK 8/050

Decode

TAF

Not found

Destination Runways

ID Width Length Bearing (true) Bearing (mag) Surface Threshold Offset Overrun Length
04 98 ft / 30 m 3,264 ft / 995 m 47.19° 41.82° Asphalt 0 ft / 0 m 120 ft / 37 m
14 148 ft / 45 m 9,893 ft / 3,015 m 149.34° 143.97° Asphalt 0 ft / 0 m 191 ft / 58 m
22 98 ft / 30 m 3,264 ft / 995 m 227.19° 221.82° Asphalt 0 ft / 0 m 98 ft / 30 m
32 148 ft / 45 m 9,893 ft / 3,015 m 329.35° 323.98° Asphalt 0 ft / 0 m 191 ft / 58 m

Popular Alternatives